createdAt,value
2023-05-25T00:00:19.677Z,66.43
2023-05-25T00:01:21.952Z,66.40
2023-05-25T00:02:24.972Z,66.47
2023-05-25T00:03:27.457Z,66.60
2023-05-25T00:04:30.484Z,66.81
2023-05-25T00:05:33.487Z,67.08
2023-05-25T00:06:36.073Z,66.67
2023-05-25T00:07:39.075Z,66.86
2023-05-25T00:08:41.752Z,66.90
2023-05-25T00:09:44.145Z,66.88
2023-05-25T00:10:46.395Z,66.91
2023-05-25T00:11:48.638Z,66.82
2023-05-25T00:12:50.956Z,66.91
2023-05-25T00:13:53.347Z,66.88
2023-05-25T00:14:55.487Z,66.92
2023-05-25T00:15:58.055Z,67.05
2023-05-25T00:17:00.283Z,67.10
2023-05-25T00:18:02.622Z,67.22
2023-05-25T00:19:05.577Z,67.41
2023-05-25T00:20:09.224Z,67.30
2023-05-25T00:21:12.155Z,67.68
2023-05-25T00:22:14.190Z,67.34
2023-05-25T00:23:16.931Z,67.35
2023-05-25T00:24:19.118Z,67.27
2023-05-25T00:25:21.890Z,67.29
2023-05-25T00:26:24.101Z,67.36
2023-05-25T00:27:26.333Z,67.45
2023-05-25T00:28:28.624Z,67.60
2023-05-25T00:29:30.942Z,67.48
2023-05-25T00:30:33.478Z,67.47
2023-05-25T00:31:35.864Z,67.70
2023-05-25T00:32:37.952Z,67.85
2023-05-25T00:33:40.534Z,67.94
2023-05-25T00:34:42.677Z,67.70
2023-05-25T00:35:46.417Z,67.70
2023-05-25T00:36:50.982Z,67.81
2023-05-25T00:37:53.710Z,67.57
2023-05-25T00:38:56.671Z,67.80
2023-05-25T00:39:59.336Z,68.01
2023-05-25T00:41:02.819Z,68.05
2023-05-25T00:42:06.529Z,67.85
2023-05-25T00:43:09.505Z,67.64
2023-05-25T00:44:13.507Z,67.61
2023-05-25T00:45:15.871Z,67.52
2023-05-25T00:46:19.230Z,67.54
2023-05-25T00:47:22.006Z,67.65
2023-05-25T00:48:27.504Z,67.69
2023-05-25T00:49:32.694Z,67.67
2023-05-25T00:50:42.692Z,67.70
2023-05-25T00:51:45.980Z,67.65
2023-05-25T00:52:49.694Z,68.26
2023-05-25T00:53:52.076Z,68.32
2023-05-25T00:54:59.348Z,68.12
2023-05-25T00:56:17.276Z,68.11
2023-05-25T00:57:22.236Z,68.15
2023-05-25T00:58:26.868Z,67.97
2023-05-25T00:59:42.004Z,68.16
2023-05-25T01:00:45.623Z,68.14
2023-05-25T01:01:49.225Z,68.23
2023-05-25T01:02:54.170Z,68.24
2023-05-25T01:03:59.104Z,68.29
2023-05-25T01:05:03.868Z,68.27
2023-05-25T01:06:09.944Z,68.39
2023-05-25T01:07:16.272Z,68.51
2023-05-25T01:08:21.173Z,68.41
2023-05-25T01:09:26.697Z,68.23
2023-05-25T01:10:35.538Z,68.30
2023-05-25T01:11:41.501Z,68.49
2023-05-25T01:12:45.371Z,68.31
2023-05-25T01:13:49.609Z,68.72
2023-05-25T01:14:53.520Z,68.34
2023-05-25T01:15:57.137Z,68.41
2023-05-25T01:17:00.490Z,68.29
2023-05-25T01:18:02.895Z,68.44
2023-05-25T01:19:05.411Z,68.79
2023-05-25T01:20:11.240Z,68.90
2023-05-25T01:22:57.591Z,68.62
2023-05-25T01:24:03.625Z,68.93
2023-05-25T01:26:25.207Z,68.75
2023-05-25T01:27:31.173Z,68.83
2023-05-25T01:28:40.376Z,69.08
2023-05-25T01:29:46.504Z,69.05
2023-05-25T01:30:51.611Z,68.85
2023-05-25T01:31:57.315Z,68.85
2023-05-25T01:33:00.194Z,68.79
2023-05-25T01:34:05.443Z,68.81
2023-05-25T01:35:09.220Z,68.81
2023-05-25T01:36:11.803Z,68.86
2023-05-25T01:37:14.417Z,68.85
2023-05-25T01:38:17.182Z,68.88
2023-05-25T01:40:30.270Z,68.81
2023-05-25T01:41:33.143Z,68.93
2023-05-25T01:42:35.328Z,68.67
2023-05-25T01:43:39.921Z,68.84
2023-05-25T01:44:42.853Z,69.13
2023-05-25T01:45:46.826Z,69.16
2023-05-25T01:48:28.274Z,69.24
2023-05-25T01:49:51.151Z,69.57
2023-05-25T01:51:00.071Z,69.25
2023-05-25T01:52:21.088Z,69.47
2023-05-25T01:53:26.974Z,69.47
2023-05-25T01:54:38.383Z,69.56
2023-05-25T01:56:56.365Z,69.66
2023-05-25T01:58:02.020Z,70.13
2023-05-25T01:59:07.465Z,70.17
2023-05-25T02:00:12.867Z,69.94
2023-05-25T02:01:19.927Z,69.86
2023-05-25T02:02:24.510Z,69.93
2023-05-25T02:03:27.477Z,69.86
2023-05-25T02:04:30.333Z,69.92
2023-05-25T02:05:33.137Z,69.84
2023-05-25T02:06:36.033Z,69.83
2023-05-25T02:07:39.292Z,69.78
2023-05-25T02:08:41.722Z,69.73
2023-05-25T02:09:43.977Z,69.63
2023-05-25T02:10:47.337Z,69.75
2023-05-25T02:11:49.623Z,69.79
2023-05-25T02:12:52.020Z,69.82
2023-05-25T02:13:54.417Z,70.17
2023-05-25T02:14:56.940Z,69.92
2023-05-25T02:15:59.419Z,69.79
2023-05-25T02:17:01.813Z,69.52
2023-05-25T02:18:04.247Z,69.42
2023-05-25T02:19:06.644Z,69.69
2023-05-25T02:20:10.662Z,69.83
2023-05-25T02:21:12.969Z,69.82
2023-05-25T02:22:15.730Z,69.85
2023-05-25T02:23:18.631Z,69.91
2023-05-25T02:24:22.520Z,69.87
2023-05-25T02:25:25.240Z,69.89
2023-05-25T02:26:27.617Z,69.77
2023-05-25T02:27:30.586Z,69.73
2023-05-25T02:28:32.887Z,69.94
2023-05-25T02:29:35.195Z,69.78
2023-05-25T02:30:38.156Z,69.93
2023-05-25T02:31:40.347Z,69.91
2023-05-25T02:32:42.801Z,69.88
2023-05-25T02:33:45.211Z,69.87
2023-05-25T02:34:47.676Z,69.80
2023-05-25T02:35:50.350Z,69.70
2023-05-25T02:36:52.800Z,69.84
2023-05-25T02:37:55.115Z,69.86
2023-05-25T02:38:57.505Z,69.74
2023-05-25T02:39:59.840Z,69.95
2023-05-25T02:41:02.111Z,69.89
2023-05-25T02:42:04.837Z,69.96
2023-05-25T02:43:07.236Z,70.30
2023-05-25T02:44:09.565Z,70.22
2023-05-25T02:45:11.914Z,70.24
2023-05-25T02:46:14.993Z,70.00
2023-05-25T02:47:18.454Z,70.12
2023-05-25T02:48:20.969Z,70.15
2023-05-25T02:49:23.345Z,70.25
2023-05-25T02:50:25.709Z,70.27
2023-05-25T02:51:30.183Z,70.22
2023-05-25T02:52:33.880Z,70.14
2023-05-25T02:53:36.193Z,70.29
2023-05-25T02:54:38.857Z,70.20
2023-05-25T02:55:42.647Z,70.33
2023-05-25T02:56:46.948Z,70.23
2023-05-25T02:57:50.357Z,70.16
2023-05-25T02:58:54.661Z,69.89
2023-05-25T02:59:58.866Z,70.09
2023-05-25T03:01:01.321Z,69.97
2023-05-25T03:02:04.113Z,69.56
2023-05-25T03:03:06.872Z,69.62
2023-05-25T03:04:09.213Z,69.39
2023-05-25T03:05:12.719Z,69.37
2023-05-25T03:06:15.748Z,69.24
2023-05-25T03:07:19.773Z,69.34
2023-05-25T03:08:23.808Z,69.39
2023-05-25T03:09:26.029Z,69.56
2023-05-25T03:10:28.599Z,69.88
2023-05-25T03:11:31.184Z,70.07
2023-05-25T03:12:33.896Z,70.11
2023-05-25T03:13:36.649Z,70.10
2023-05-25T03:14:39.093Z,69.93
2023-05-25T03:15:41.548Z,69.93
2023-05-25T03:16:43.934Z,69.67
2023-05-25T03:17:46.325Z,69.77
2023-05-25T03:18:49.284Z,69.81
2023-05-25T03:19:51.804Z,69.74
2023-05-25T03:20:54.113Z,69.41
2023-05-25T03:21:56.670Z,69.63
2023-05-25T03:22:59.091Z,69.70
2023-05-25T03:24:01.426Z,70.06
2023-05-25T03:25:04.102Z,70.38
2023-05-25T03:26:06.985Z,70.36
2023-05-25T03:27:09.355Z,70.23
2023-05-25T03:28:11.681Z,70.23
2023-05-25T03:29:14.881Z,70.23
2023-05-25T03:30:17.508Z,70.00
2023-05-25T03:31:21.119Z,69.65
2023-05-25T03:32:23.614Z,69.87
2023-05-25T03:33:26.052Z,69.49
2023-05-25T03:34:29.337Z,69.12
2023-05-25T03:35:32.052Z,68.99
2023-05-25T03:36:34.631Z,68.76
2023-05-25T03:37:37.042Z,68.99
2023-05-25T03:38:41.975Z,68.88
2023-05-25T03:39:44.361Z,69.24
2023-05-25T03:40:47.085Z,69.04
2023-05-25T03:41:49.946Z,69.08
2023-05-25T03:42:52.821Z,69.18
2023-05-25T03:43:56.671Z,69.09
2023-05-25T03:44:58.951Z,68.67
2023-05-25T03:46:01.436Z,68.82
2023-05-25T03:47:05.695Z,68.95
2023-05-25T03:48:08.044Z,68.96
2023-05-25T03:49:11.437Z,69.19
2023-05-25T03:50:14.251Z,68.74
2023-05-25T03:51:18.083Z,68.84
2023-05-25T03:52:21.048Z,68.50
2023-05-25T03:53:23.501Z,68.41
2023-05-25T03:54:25.953Z,68.20
2023-05-25T03:55:28.316Z,68.46
2023-05-25T03:56:30.893Z,68.20
2023-05-25T03:57:33.245Z,68.49
2023-05-25T03:58:36.187Z,68.26
2023-05-25T03:59:39.572Z,68.25
2023-05-25T04:00:41.812Z,68.32
2023-05-25T04:01:44.962Z,67.79
2023-05-25T04:02:47.408Z,67.67
2023-05-25T04:03:49.761Z,67.64
2023-05-25T04:04:52.198Z,67.77
2023-05-25T04:05:54.430Z,67.01
2023-05-25T04:06:57.446Z,66.41
2023-05-25T04:07:59.721Z,66.24
2023-05-25T04:09:03.965Z,66.18
2023-05-25T04:10:09.076Z,65.91
2023-05-25T04:11:11.453Z,65.99
2023-05-25T04:12:14.342Z,65.51
2023-05-25T04:13:16.739Z,66.14
2023-05-25T04:14:18.996Z,66.06
2023-05-25T04:15:21.838Z,66.33
2023-05-25T04:16:34.980Z,65.92
2023-05-25T04:17:39.481Z,65.15
2023-05-25T04:18:41.997Z,64.91
2023-05-25T04:19:44.439Z,65.00
2023-05-25T04:20:47.039Z,65.26
2023-05-25T04:21:50.837Z,65.49
2023-05-25T04:22:53.880Z,64.96
2023-05-25T04:23:56.245Z,65.33
2023-05-25T04:24:58.610Z,64.95
2023-05-25T04:26:02.084Z,64.39
2023-05-25T04:27:05.070Z,64.56
2023-05-25T04:28:07.713Z,64.51
2023-05-25T04:29:18.263Z,64.38
2023-05-25T04:30:37.072Z,63.97
2023-05-25T04:31:44.402Z,64.22
2023-05-25T04:32:50.153Z,64.11
2023-05-25T04:34:06.378Z,64.38
2023-05-25T04:35:11.682Z,64.10
2023-05-25T04:36:17.386Z,63.31
2023-05-25T04:37:20.117Z,63.43
2023-05-25T04:38:22.484Z,63.50
2023-05-25T04:39:25.317Z,63.52
2023-05-25T04:40:29.838Z,63.59
2023-05-25T04:41:32.488Z,63.49
2023-05-25T04:42:37.384Z,63.40
2023-05-25T04:43:49.353Z,63.62
2023-05-25T04:44:46.326Z,63.60
2023-05-25T04:45:48.721Z,63.34
2023-05-25T04:46:51.282Z,63.33
2023-05-25T04:47:55.492Z,63.28
2023-05-25T04:48:58.178Z,63.23
2023-05-25T04:50:01.174Z,62.64
2023-05-25T04:51:04.794Z,62.72
2023-05-25T04:52:09.112Z,63.48
2023-05-25T04:53:12.055Z,62.98
2023-05-25T04:54:15.241Z,62.77
2023-05-25T04:55:17.604Z,63.08
2023-05-25T04:56:20.615Z,63.25
2023-05-25T04:57:23.544Z,62.95
2023-05-25T04:58:27.065Z,62.97
2023-05-25T04:59:29.462Z,63.19
2023-05-25T05:00:32.968Z,62.89
2023-05-25T05:01:35.964Z,63.17
2023-05-25T05:02:38.825Z,63.33
2023-05-25T05:03:43.539Z,63.17
2023-05-25T05:04:46.021Z,63.40
2023-05-25T05:05:49.363Z,63.35
2023-05-25T05:06:53.551Z,63.68
2023-05-25T05:07:58.740Z,63.41
2023-05-25T05:09:02.457Z,63.33
2023-05-25T05:10:06.518Z,63.09
2023-05-25T05:11:10.073Z,62.92
2023-05-25T05:12:12.562Z,62.50
2023-05-25T05:13:17.236Z,61.87
2023-05-25T05:14:19.672Z,62.04
2023-05-25T05:15:23.006Z,61.94
2023-05-25T05:16:26.623Z,62.54
2023-05-25T05:17:29.048Z,62.96
2023-05-25T05:18:31.893Z,62.68
2023-05-25T05:19:34.352Z,62.49
2023-05-25T05:20:38.071Z,62.30
2023-05-25T05:21:40.468Z,61.41
2023-05-25T05:22:43.614Z,61.45
2023-05-25T05:23:46.313Z,61.20
2023-05-25T05:24:48.978Z,61.06
2023-05-25T05:25:53.163Z,60.97
2023-05-25T05:26:59.094Z,61.02
2023-05-25T05:28:05.559Z,61.10
2023-05-25T05:29:09.773Z,60.66
2023-05-25T05:30:14.114Z,61.12
2023-05-25T05:31:16.536Z,60.63
2023-05-25T05:32:19.023Z,60.42
2023-05-25T05:33:22.103Z,60.23
2023-05-25T05:34:24.371Z,59.95
2023-05-25T05:35:26.623Z,59.96
2023-05-25T05:36:32.005Z,60.75
2023-05-25T05:37:35.279Z,60.12
2023-05-25T05:38:39.306Z,59.92
2023-05-25T05:39:41.801Z,59.19
2023-05-25T05:40:44.433Z,58.33
2023-05-25T05:41:46.714Z,58.77
2023-05-25T05:42:49.776Z,58.99
2023-05-25T05:43:52.226Z,59.05
2023-05-25T05:44:54.577Z,58.86
2023-05-25T05:45:56.831Z,59.06
2023-05-25T05:46:59.064Z,58.61
2023-05-25T05:48:01.453Z,58.68
2023-05-25T05:49:06.516Z,58.50
2023-05-25T05:50:11.292Z,58.92
2023-05-25T05:51:14.989Z,57.78
2023-05-25T05:52:17.396Z,56.75
2023-05-25T05:53:20.329Z,56.44
2023-05-25T05:54:22.796Z,56.00
2023-05-25T05:55:25.908Z,56.54
2023-05-25T05:56:28.444Z,56.54
2023-05-25T05:57:30.902Z,55.94
2023-05-25T05:58:34.906Z,55.35
2023-05-25T05:59:38.619Z,56.16
2023-05-25T06:00:41.126Z,55.84
2023-05-25T06:01:44.394Z,55.98
2023-05-25T06:02:46.895Z,56.08
2023-05-25T06:03:51.300Z,55.50
2023-05-25T06:04:53.466Z,55.36
2023-05-25T06:05:55.829Z,54.89
2023-05-25T06:06:58.413Z,55.49
2023-05-25T06:08:00.597Z,56.91
2023-05-25T06:09:04.264Z,56.41
2023-05-25T06:10:08.735Z,56.61
2023-05-25T06:11:12.304Z,55.94
2023-05-25T06:12:15.020Z,55.85
2023-05-25T06:13:17.254Z,55.12
2023-05-25T06:14:19.767Z,55.39
2023-05-25T06:15:22.172Z,55.88
2023-05-25T06:16:25.557Z,55.42
2023-05-25T06:17:27.929Z,54.84
2023-05-25T06:18:30.654Z,55.35
2023-05-25T06:19:33.138Z,55.46
2023-05-25T06:20:36.287Z,55.02
2023-05-25T06:21:38.602Z,54.66
2023-05-25T06:22:40.789Z,55.13
2023-05-25T06:23:43.160Z,54.94
2023-05-25T06:24:45.546Z,54.89
2023-05-25T06:25:48.514Z,55.00
2023-05-25T06:26:51.536Z,54.90
2023-05-25T06:27:55.244Z,54.98
2023-05-25T06:28:57.615Z,53.77
2023-05-25T06:30:00.992Z,54.96
2023-05-25T06:31:04.846Z,54.83
2023-05-25T06:32:08.330Z,54.62
2023-05-25T06:33:11.407Z,54.21
2023-05-25T06:34:13.776Z,54.38
2023-05-25T06:35:16.484Z,53.61
2023-05-25T06:36:19.301Z,53.64
2023-05-25T06:37:21.649Z,53.94
2023-05-25T06:38:24.511Z,53.87
2023-05-25T06:39:26.952Z,52.90
2023-05-25T06:40:29.347Z,52.94
2023-05-25T06:41:32.934Z,53.17
2023-05-25T06:42:35.959Z,53.49
2023-05-25T06:43:38.259Z,53.98
2023-05-25T06:45:01.054Z,53.92
2023-05-25T06:46:03.811Z,53.42
2023-05-25T06:47:06.517Z,54.09
2023-05-25T06:48:09.495Z,54.32
2023-05-25T06:49:11.896Z,53.57
2023-05-25T06:50:14.290Z,54.45
2023-05-25T06:51:16.500Z,54.05
2023-05-25T06:52:18.986Z,53.26
2023-05-25T06:53:21.351Z,53.06
2023-05-25T06:54:23.852Z,53.32
2023-05-25T06:55:26.339Z,52.13
2023-05-25T06:56:28.884Z,52.67
2023-05-25T06:57:31.076Z,53.13
2023-05-25T06:58:46.879Z,52.30
2023-05-25T06:59:49.264Z,52.21
2023-05-25T07:00:51.686Z,53.07
2023-05-25T07:01:54.498Z,52.25
2023-05-25T07:02:56.922Z,52.12
2023-05-25T07:03:59.147Z,51.51
2023-05-25T07:05:01.468Z,52.06
2023-05-25T07:06:05.224Z,51.90
2023-05-25T07:07:07.559Z,50.88
2023-05-25T07:08:09.823Z,51.21
2023-05-25T07:09:12.028Z,51.56
2023-05-25T07:10:15.329Z,50.79
2023-05-25T07:11:18.019Z,51.50
2023-05-25T07:12:20.859Z,50.57
2023-05-25T07:13:23.127Z,49.45
2023-05-25T07:14:25.786Z,50.54
2023-05-25T07:15:28.053Z,50.95
2023-05-25T07:16:30.810Z,50.21
2023-05-25T07:17:33.334Z,50.22
2023-05-25T07:18:42.166Z,50.50
2023-05-25T07:19:44.434Z,50.26
2023-05-25T07:20:46.986Z,50.04
2023-05-25T07:21:49.381Z,49.90
2023-05-25T07:22:51.524Z,50.42
2023-05-25T07:23:53.833Z,49.93
2023-05-25T07:24:56.137Z,48.83
2023-05-25T07:25:58.760Z,48.38
2023-05-25T07:27:01.962Z,48.10
2023-05-25T07:28:05.724Z,48.95
2023-05-25T07:29:08.102Z,49.54
2023-05-25T07:30:11.708Z,49.27
2023-05-25T07:31:14.632Z,48.67
2023-05-25T07:32:16.961Z,49.67
2023-05-25T07:33:19.642Z,49.00
2023-05-25T07:34:21.985Z,48.43
2023-05-25T07:35:25.401Z,48.61
2023-05-25T07:36:28.171Z,48.28
2023-05-25T07:37:30.343Z,48.22
2023-05-25T07:38:32.580Z,48.00
2023-05-25T07:39:34.623Z,47.38
2023-05-25T07:40:37.484Z,47.49
2023-05-25T07:41:40.101Z,46.96
2023-05-25T07:42:42.477Z,48.07
2023-05-25T07:43:45.107Z,47.46
2023-05-25T07:44:48.424Z,48.74
2023-05-25T07:45:51.581Z,48.00
2023-05-25T07:46:54.277Z,47.37
2023-05-25T07:47:56.942Z,48.03
2023-05-25T07:48:59.614Z,47.77
2023-05-25T07:50:02.592Z,47.35
2023-05-25T07:51:05.113Z,46.38
2023-05-25T07:52:07.424Z,46.45
2023-05-25T07:53:10.144Z,46.01
2023-05-25T07:54:12.936Z,45.72
2023-05-25T07:55:15.811Z,45.52
2023-05-25T07:56:18.752Z,47.52
2023-05-25T07:57:21.005Z,45.50
2023-05-25T07:58:23.095Z,46.14
2023-05-25T07:59:26.099Z,47.32
2023-05-25T08:00:28.700Z,46.76
2023-05-25T08:01:31.579Z,46.78
2023-05-25T08:02:33.847Z,46.96
2023-05-25T08:03:49.216Z,46.47
2023-05-25T08:04:40.490Z,46.78
2023-05-25T08:05:42.982Z,45.60
2023-05-25T08:06:45.999Z,46.23
2023-05-25T08:07:48.374Z,46.47
2023-05-25T08:08:50.751Z,46.40
2023-05-25T08:09:52.974Z,45.19
2023-05-25T08:10:55.642Z,45.06
2023-05-25T08:12:07.827Z,45.56
2023-05-25T08:13:02.501Z,45.54
2023-05-25T08:14:04.955Z,44.71
2023-05-25T08:15:08.577Z,43.61
2023-05-25T08:16:11.581Z,44.65
2023-05-25T08:17:13.900Z,43.81
2023-05-25T08:18:16.269Z,43.85
2023-05-25T08:19:19.364Z,43.48
2023-05-25T08:20:22.464Z,44.26
2023-05-25T08:21:25.192Z,44.01
2023-05-25T08:22:27.303Z,43.23
2023-05-25T08:23:29.553Z,43.79
2023-05-25T08:24:31.658Z,43.33
2023-05-25T08:25:34.269Z,43.09
2023-05-25T08:26:52.939Z,42.58
2023-05-25T08:27:41.781Z,43.86
2023-05-25T08:28:44.170Z,41.76
2023-05-25T08:29:46.276Z,43.63
2023-05-25T08:30:48.857Z,43.64
2023-05-25T08:31:51.464Z,43.09
2023-05-25T08:32:53.753Z,42.74
2023-05-25T08:33:56.279Z,42.57
2023-05-25T08:35:00.324Z,42.53
2023-05-25T08:36:04.881Z,40.43
2023-05-25T08:37:07.270Z,39.65
2023-05-25T08:38:09.874Z,39.88
2023-05-25T08:39:12.638Z,39.94
2023-05-25T08:40:16.595Z,40.49
2023-05-25T08:41:20.283Z,41.90
2023-05-25T08:42:22.575Z,43.03
2023-05-25T08:43:25.197Z,45.20
2023-05-25T08:44:28.070Z,44.90
2023-05-25T08:45:49.704Z,45.23
2023-05-25T08:46:36.694Z,46.55
2023-05-25T08:47:42.714Z,48.71
2023-05-25T08:48:49.235Z,51.66
2023-05-25T08:49:53.339Z,49.36
2023-05-25T08:51:01.824Z,46.67
2023-05-25T08:52:05.329Z,44.82
2023-05-25T08:53:09.679Z,44.96
2023-05-25T08:54:13.443Z,49.60
2023-05-25T08:55:18.832Z,52.28
2023-05-25T08:56:23.915Z,53.16
2023-05-25T09:00:05.824Z,55.27
2023-05-25T09:01:11.039Z,56.86
2023-05-25T09:02:36.090Z,53.85
2023-05-25T09:03:39.896Z,52.10
2023-05-25T09:04:43.501Z,48.25
2023-05-25T09:05:46.935Z,47.24
2023-05-25T09:07:05.920Z,45.78
2023-05-25T09:07:56.292Z,46.52
2023-05-25T09:09:01.098Z,50.78
2023-05-25T09:10:03.997Z,53.53
2023-05-25T09:11:07.874Z,54.23
2023-05-25T09:12:11.879Z,57.14
2023-05-25T09:14:20.254Z,56.77
2023-05-25T09:15:22.545Z,54.73
2023-05-25T09:16:25.769Z,56.04
2023-05-25T09:17:28.511Z,57.88
2023-05-25T09:18:30.687Z,57.73
2023-05-25T09:19:34.981Z,55.59
2023-05-25T09:20:37.847Z,56.56
2023-05-25T09:21:40.281Z,56.64
2023-05-25T09:22:44.059Z,56.82
2023-05-25T09:23:47.332Z,53.83
2023-05-25T09:24:50.051Z,55.35
2023-05-25T09:25:53.800Z,56.64
2023-05-25T09:26:56.477Z,58.73
2023-05-25T09:28:00.244Z,57.48
2023-05-25T09:29:03.576Z,55.23
2023-05-25T09:30:07.310Z,52.60
2023-05-25T09:31:09.981Z,53.43
2023-05-25T09:32:13.113Z,56.01
2023-05-25T09:33:16.143Z,54.76
2023-05-25T09:34:19.526Z,56.71
2023-05-25T09:35:21.696Z,55.24
2023-05-25T09:36:24.635Z,58.08
2023-05-25T09:37:27.256Z,55.52
2023-05-25T09:38:30.127Z,57.96
2023-05-25T09:39:32.716Z,59.18
2023-05-25T09:40:37.360Z,58.19
2023-05-25T09:41:43.298Z,57.43
2023-05-25T09:42:45.384Z,55.95
2023-05-25T09:44:51.501Z,56.52
2023-05-25T09:45:54.492Z,55.91
2023-05-25T09:46:56.926Z,55.69
2023-05-25T09:48:00.937Z,55.78
2023-05-25T09:49:04.675Z,56.61
2023-05-25T09:50:08.863Z,57.58
2023-05-25T09:51:11.851Z,57.92
2023-05-25T09:52:14.759Z,54.34
2023-05-25T09:53:17.230Z,53.31
2023-05-25T09:54:22.084Z,52.54
2023-05-25T09:55:25.612Z,53.59
2023-05-25T09:56:31.242Z,54.10
2023-05-25T09:57:35.322Z,52.34
2023-05-25T09:58:37.626Z,52.19
2023-05-25T09:59:40.979Z,51.23
2023-05-25T10:00:44.091Z,52.72
2023-05-25T10:01:50.155Z,54.02
2023-05-25T10:02:53.549Z,54.97
2023-05-25T10:04:04.347Z,56.78
2023-05-25T10:05:00.011Z,54.67
2023-05-25T10:06:03.892Z,55.85
2023-05-25T10:07:07.304Z,55.78
2023-05-25T10:08:10.774Z,56.73
2023-05-25T10:09:14.575Z,56.19
2023-05-25T10:10:18.285Z,55.94
2023-05-25T10:11:21.992Z,54.42
2023-05-25T10:12:26.268Z,57.71
2023-05-25T10:13:32.009Z,54.35
2023-05-25T10:14:37.531Z,54.09
2023-05-25T10:15:43.248Z,53.93
2023-05-25T10:16:48.425Z,55.02
2023-05-25T10:17:54.485Z,53.64
2023-05-25T10:20:18.618Z,54.28
2023-05-25T10:21:22.357Z,54.95
2023-05-25T10:22:45.759Z,56.06
2023-05-25T10:23:54.655Z,56.52
2023-05-25T10:25:03.218Z,57.77
2023-05-25T10:26:07.006Z,57.78
2023-05-25T10:27:25.702Z,56.50
2023-05-25T10:29:37.376Z,55.82
2023-05-25T10:30:42.507Z,55.73
2023-05-25T10:31:45.245Z,56.50
2023-05-25T10:32:48.060Z,56.56
2023-05-25T10:33:52.534Z,56.50
2023-05-25T10:34:56.976Z,57.17
2023-05-25T10:36:10.036Z,56.05
2023-05-25T10:37:07.141Z,56.24
2023-05-25T10:38:11.737Z,56.19
2023-05-25T10:39:15.394Z,56.60
2023-05-25T10:40:20.361Z,57.13
2023-05-25T10:41:23.151Z,56.86
2023-05-25T10:42:27.306Z,57.30
2023-05-25T10:43:30.202Z,57.73
2023-05-25T10:44:33.121Z,58.77
2023-05-25T10:45:36.097Z,59.95
2023-05-25T10:46:40.530Z,60.36
2023-05-25T10:47:43.333Z,59.28
2023-05-25T10:48:47.113Z,58.73
2023-05-25T10:49:58.335Z,58.89
2023-05-25T10:51:00.859Z,59.66
2023-05-25T10:52:03.285Z,59.50
2023-05-25T10:54:16.535Z,61.81
2023-05-25T10:55:18.902Z,61.40
2023-05-25T10:56:21.237Z,60.39
2023-05-25T10:57:24.400Z,61.57
2023-05-25T10:58:28.611Z,62.18
2023-05-25T10:59:30.781Z,61.92
2023-05-25T11:00:34.171Z,63.55
2023-05-25T11:01:40.275Z,62.62
2023-05-25T11:02:54.236Z,60.93
2023-05-25T11:03:59.367Z,61.43
2023-05-25T11:05:22.663Z,62.18
2023-05-25T11:07:54.408Z,61.54
2023-05-25T11:08:58.533Z,62.26
2023-05-25T11:10:01.193Z,62.75
2023-05-25T11:11:03.409Z,62.69
2023-05-25T11:12:06.554Z,63.58
2023-05-25T11:13:38.050Z,61.92
2023-05-25T11:14:41.083Z,62.34
2023-05-25T11:15:43.430Z,62.06
2023-05-25T11:17:08.522Z,61.91
2023-05-25T11:18:15.617Z,61.77
2023-05-25T11:19:18.266Z,61.87
2023-05-25T11:20:22.735Z,62.59
2023-05-25T11:21:32.474Z,62.22
2023-05-25T11:22:35.071Z,61.58
2023-05-25T11:23:41.744Z,62.39
2023-05-25T11:24:44.344Z,62.34
2023-05-25T11:25:46.817Z,62.52
2023-05-25T11:26:54.613Z,61.50
2023-05-25T11:28:00.890Z,61.25
2023-05-25T11:29:15.454Z,61.47
2023-05-25T11:30:19.486Z,62.01
2023-05-25T11:32:36.088Z,62.58
2023-05-25T11:33:38.770Z,63.50
2023-05-25T11:34:42.433Z,65.78
2023-05-25T11:35:44.988Z,64.85
2023-05-25T11:36:48.253Z,63.88
2023-05-25T11:37:50.495Z,63.15
2023-05-25T11:39:04.991Z,63.58
2023-05-25T11:39:58.586Z,63.32
2023-05-25T11:41:03.197Z,64.38
2023-05-25T11:42:06.518Z,65.38
2023-05-25T11:43:10.926Z,63.89
2023-05-25T11:44:13.257Z,62.57
2023-05-25T11:45:15.543Z,61.87
2023-05-25T11:46:18.126Z,61.86
2023-05-25T11:47:22.124Z,62.01
2023-05-25T11:48:24.640Z,62.81
2023-05-25T11:49:27.511Z,62.70
2023-05-25T11:50:30.081Z,64.48
2023-05-25T11:51:32.695Z,63.24
2023-05-25T11:52:35.015Z,62.85
2023-05-25T11:53:44.608Z,62.00
2023-05-25T11:54:47.108Z,61.69
2023-05-25T11:55:55.637Z,61.64
2023-05-25T11:56:56.968Z,62.15
2023-05-25T11:57:59.334Z,62.01
2023-05-25T11:59:02.128Z,61.05
2023-05-25T12:00:08.502Z,61.56
2023-05-25T12:01:16.574Z,61.05
2023-05-25T12:02:20.702Z,61.24
2023-05-25T12:03:33.454Z,61.57
2023-05-25T12:04:35.882Z,62.02
2023-05-25T12:05:41.012Z,63.52
2023-05-25T12:06:44.003Z,63.89
2023-05-25T12:07:46.766Z,63.50
2023-05-25T12:08:49.789Z,62.35
2023-05-25T12:09:54.245Z,62.20
2023-05-25T12:10:56.620Z,62.77
2023-05-25T12:12:00.257Z,62.18
2023-05-25T12:13:03.348Z,61.56
2023-05-25T12:14:07.133Z,62.23
2023-05-25T12:15:14.780Z,62.80
2023-05-25T12:16:17.184Z,62.47
2023-05-25T12:17:21.163Z,61.21
2023-05-25T12:18:23.904Z,60.87
2023-05-25T12:19:26.574Z,60.37
2023-05-25T12:20:29.547Z,60.36
2023-05-25T12:21:33.632Z,59.73
2023-05-25T12:22:37.014Z,59.70
2023-05-25T12:23:39.526Z,59.58
2023-05-25T12:24:41.723Z,59.39
2023-05-25T12:25:50.660Z,59.29
2023-05-25T12:26:52.164Z,60.38
2023-05-25T12:28:15.136Z,59.99
2023-05-25T12:29:17.645Z,60.05
2023-05-25T12:30:23.465Z,58.82
2023-05-25T12:31:27.984Z,59.31
2023-05-25T12:32:30.272Z,59.55
2023-05-25T12:33:32.853Z,58.92
2023-05-25T12:34:35.058Z,58.82
2023-05-25T12:35:47.893Z,59.43
2023-05-25T12:36:52.677Z,59.58
2023-05-25T12:38:14.856Z,58.79
2023-05-25T12:39:32.306Z,59.27
2023-05-25T12:40:34.745Z,60.32
2023-05-25T12:41:54.240Z,59.19
2023-05-25T12:42:56.964Z,59.08
2023-05-25T12:43:59.218Z,60.21
2023-05-25T12:45:01.310Z,61.18
2023-05-25T12:46:03.767Z,59.83
2023-05-25T12:47:14.843Z,58.98
2023-05-25T12:48:20.628Z,58.12
2023-05-25T12:49:31.829Z,57.56
2023-05-25T12:50:34.910Z,57.18
2023-05-25T12:51:40.792Z,57.53
2023-05-25T12:52:46.304Z,58.05
2023-05-25T12:53:50.095Z,58.01
2023-05-25T12:54:52.596Z,57.77
2023-05-25T12:56:02.375Z,58.09
2023-05-25T12:57:06.088Z,58.04
2023-05-25T12:58:12.306Z,58.02
2023-05-25T12:59:15.645Z,57.57
2023-05-25T13:00:22.829Z,57.04
2023-05-25T13:01:25.216Z,57.00
2023-05-25T13:02:27.911Z,57.03
2023-05-25T13:03:30.717Z,57.53
2023-05-25T13:04:33.970Z,56.03
2023-05-25T13:05:37.295Z,55.92
2023-05-25T13:06:39.594Z,56.64
2023-05-25T13:07:41.904Z,56.50
2023-05-25T13:08:44.524Z,57.34
2023-05-25T13:09:46.743Z,58.15
2023-05-25T13:10:49.861Z,57.83
2023-05-25T13:11:53.924Z,58.34
2023-05-25T13:12:56.219Z,57.65
2023-05-25T13:13:58.504Z,55.83
2023-05-25T13:15:01.729Z,56.04
2023-05-25T13:16:04.269Z,56.69
2023-05-25T13:17:07.681Z,57.41
2023-05-25T13:18:10.306Z,57.57
2023-05-25T13:19:13.527Z,56.34
2023-05-25T13:21:26.275Z,56.77
2023-05-25T13:22:28.548Z,56.78
2023-05-25T13:23:31.785Z,56.62
2023-05-25T13:24:34.032Z,56.66
2023-05-25T13:25:36.281Z,57.28
2023-05-25T13:26:38.554Z,56.78
2023-05-25T13:27:47.091Z,56.84
2023-05-25T13:28:49.367Z,56.37
2023-05-25T13:29:51.940Z,56.76
2023-05-25T13:30:54.289Z,56.90
2023-05-25T13:31:57.112Z,57.07
2023-05-25T13:32:59.413Z,56.66
2023-05-25T13:34:01.715Z,56.53
2023-05-25T13:35:04.596Z,57.03
2023-05-25T13:36:08.710Z,57.35
2023-05-25T13:37:11.219Z,56.71
2023-05-25T13:38:15.215Z,57.49
2023-05-25T13:39:17.338Z,57.76
2023-05-25T13:40:19.686Z,58.32
2023-05-25T13:41:21.726Z,58.83
2023-05-25T13:42:26.130Z,58.04
2023-05-25T13:43:29.190Z,57.43
2023-05-25T13:44:31.227Z,57.84
2023-05-25T13:45:33.470Z,58.23
2023-05-25T13:46:35.737Z,57.90
2023-05-25T13:47:38.613Z,57.08
2023-05-25T13:48:42.290Z,56.43
2023-05-25T13:49:44.594Z,57.24
2023-05-25T13:50:46.854Z,56.43
2023-05-25T13:51:49.155Z,55.99
2023-05-25T13:52:52.469Z,55.44
2023-05-25T13:53:54.819Z,54.68
2023-05-25T13:54:57.056Z,55.09
2023-05-25T13:55:59.196Z,55.81
2023-05-25T13:57:02.648Z,55.59
2023-05-25T13:58:05.253Z,55.46
2023-05-25T13:59:07.820Z,56.23
2023-05-25T14:00:11.402Z,56.85
2023-05-25T14:01:18.239Z,56.21